Ansley, Nebraska
Current Conditions -  °F | °C
As of 6:53 PM on Thursday 27 Nov 2014 (Local Time) from KBBW Reporting Station
Clear Clear  
Wind Chill: 26°   Ceiling: Unl
Heat Index: 32°   Visibility: 10mi
Dew Point: 20°   Wind: 7mph
Humidity: 61%   Direction: 130°SE
Pressure: 30.05"   Gusts: NA
Location:  41.29°N, 99.38°W
Report Text: KBBW 280053Z AUTO 13006KT 10SM CLR 00/M07 A3005 RMK AO2 SLP204 T00001067
Loading
Personal Weather Stations






























Interactive Weather Map New forecast layout! Learn more

10-Day Weather Forecast

Advertisements
Track Severe Weather on mobile